Data for 12/12/2017

Time Sea-Level Adjusted Pressure Absolute Pressure Temperature Relative Humidity Dew Point   
(mb) (inHg) (mb) (inHg) (C) (F) (%) (C) (F)
00:05 1030 30.42 860 25.4 -1.6 29.1 57 -9 15.7
00:10 1030 30.42 859 25.37 -1.3 29.7 56 -8.9 16
00:15 1030 30.42 859 25.37 -1.3 29.6 58 -8.6 16.6
00:20 1030 30.42 859 25.37 -1.3 29.6 57 -8.7 16.3
00:25 1030 30.42 859 25.37 -1.1 30 57 -8.7 16.4
00:30 1030 30.42 859 25.37 -1 30.2 54 -9.1 15.6
00:35 1030 30.42 859 25.37 -0.9 30.3 52 -9.6 14.8
00:40 1030 30.42 859 25.37 -1.4 29.5 57 -8.9 16
00:45 1030 30.42 859 25.37 -1.2 29.8 54 -9.3 15.3
00:50 1030 30.42 859 25.37 -0.4 31.3 51 -9.4 15.1
00:55 1030 30.42 859 25.37 -0.3 31.5 52 -9.1 15.7
01:00 1030 30.42 859 25.37 -0.6 31 55 -8.5 16.6
01:05 1030 30.42 859 25.37 -1 30.2 56 -8.7 16.3
01:10 1030 30.42 859 25.37 -1.4 29.5 59 -8.4 17
01:15 1030 30.42 859 25.37 -1.7 28.9 59 -8.8 16.2
01:20 1030 30.42 859 25.37 -1.7 29 58 -9 15.9
01:25 1030 30.42 859 25.37 -1.9 28.5 60 -8.7 16.4
01:30 1030 30.42 859 25.37 -2 28.4 59 -8.9 16
01:35 1030 30.42 859 25.37 -1.9 28.5 59 -8.9 16
01:40 1030 30.42 859 25.37 -2.8 27 66 -8.3 17
01:45 1030 30.42 859 25.37 -3.4 26 66 -8.9 15.9
01:50 1030 30.42 859 25.37 -3.2 26.2 61 -9.6 14.7
01:55 1030 30.42 859 25.37 -3.3 26.1 62 -9.5 14.9
02:00 1030 30.42 859 25.37 -3.1 26.4 61 -9.5 14.9
02:05 1030 30.42 859 25.37 -3.1 26.3 63 -9.3 15.2
02:10 1030 30.42 859 25.37 -3.2 26.2 62 -9.6 14.8
02:15 1030 30.42 859 25.37 -3.7 25.3 66 -9.2 15.5
02:20 1030 30.42 859 25.37 -3.3 26.1 61 -9.9 14.2
02:25 1030 30.42 859 25.37 -3.7 25.4 63 -9.8 14.4
02:30 1030 30.42 859 25.37 -3.2 26.2 61 -9.8 14.3
02:35 1030 30.42 859 25.37 -3.1 26.5 62 -9.4 15.1
02:40 1030 30.42 859 25.37 -2.1 28.2 57 -9.5 14.9
02:45 1030 30.42 859 25.37 -1.6 29.2 56 -9.2 15.5
02:50 1030 30.42 859 25.37 -1.3 29.6 55 -9.2 15.4
02:55 1030 30.42 859 25.37 -1.7 28.9 57 -9.1 15.5
03:00 1030 30.42 859 25.37 -2.2 28.1 59 -9.2 15.4
03:05 1030 30.42 859 25.37 -2.9 26.8 60 -9.6 14.7
03:10 1029 30.39 859 25.37 -2.7 27.2 58 -9.8 14.4
03:15 1030 30.42 859 25.37 -2.1 28.2 57 -9.5 15
03:20 1029 30.39 859 25.37 -2.5 27.5 60 -9.2 15.4
03:25 1029 30.39 859 25.37 -2.9 26.8 59 -9.8 14.4
03:30 1029 30.39 859 25.37 -2.7 27.1 58 -9.8 14.3
03:35 1029 30.39 859 25.37 -2.5 27.5 58 -9.8 14.4
03:40 1029 30.39 859 25.37 -2.6 27.3 58 -9.9 14.2
03:45 1029 30.39 858 25.34 -2.3 27.9 56 -9.8 14.4
03:50 1029 30.39 858 25.34 -2 28.4 61 -8.6 16.6
03:55 1029 30.39 858 25.34 -2.6 27.3 64 -8.5 16.8
04:00 1029 30.39 858 25.34 -2.6 27.4 60 -9.2 15.4
04:05 1029 30.39 858 25.34 -2.5 27.4 58 -9.6 14.7
04:10 1029 30.39 858 25.34 -2 28.3 55 -10 14
04:15 1029 30.39 858 25.34 -1.7 28.9 61 -8.4 16.9
04:20 1029 30.39 858 25.34 -2.1 28.2 61 -8.7 16.4
04:25 1029 30.39 858 25.34 -2.1 28.3 56 -9.6 14.7
04:30 1029 30.39 858 25.34 -1.5 29.4 54 -9.5 14.9
04:35 1029 30.39 858 25.34 -1.5 29.2 55 -9.5 14.9
04:40 1029 30.39 858 25.34 -1.9 28.5 56 -9.5 14.9
04:45 1029 30.39 858 25.34 -2.4 27.7 58 -9.5 14.8
04:50 1029 30.39 858 25.34 -2.6 27.3 58 -9.8 14.4
04:55 1029 30.39 858 25.34 -2.7 27.1 59 -9.7 14.5
05:00 1029 30.39 858 25.34 -2.6 27.3 58 -9.8 14.4
05:05 1029 30.39 858 25.34 -2.5 27.5 57 -10 14.1
05:10 1029 30.39 858 25.34 -2.6 27.3 57 -10 14
05:15 1029 30.39 858 25.34 -2.4 27.7 57 -9.8 14.4
05:20 1029 30.39 858 25.34 -2.4 27.7 57 -9.8 14.4
05:25 1029 30.39 858 25.34 -2.3 27.8 56 -10 14
05:30 1029 30.39 858 25.34 -2.2 28.1 55 -10 14
05:35 1029 30.39 858 25.34 -1.9 28.6 54 -9.9 14.2
05:40 1029 30.39 858 25.34 -1.6 29.1 53 -9.9 14.1
05:45 1029 30.39 858 25.34 -2.1 28.2 56 -9.8 14.4
05:50 1029 30.39 858 25.34 -2.3 27.9 55 -10.1 13.9
05:55 1029 30.39 858 25.34 -2.7 27.1 61 -9.3 15.3
06:00 1029 30.39 858 25.34 -3.9 25 64 -9.7 14.6
06:05 1029 30.39 858 25.34 -3.7 25.4 64 -9.6 14.7
06:10 1029 30.39 858 25.34 -3.9 25 63 -9.9 14.2
06:15 1029 30.39 858 25.34 -4.1 24.7 65 -9.7 14.5
06:20 1029 30.39 858 25.34 -3.9 24.9 64 -9.8 14.4
06:25 1029 30.39 858 25.34 -3.8 25.2 62 -10.1 13.8
06:30 1029 30.39 858 25.34 -3.3 26 65 -9 15.7
06:35 1028 30.36 858 25.34 -3.6 25.5 61 -10 14
06:40 1028 30.36 858 25.34 -3.2 26.3 58 -10.3 13.5
06:45 1029 30.39 858 25.34 -2.9 26.8 59 -9.9 14.3
06:50 1029 30.39 858 25.34 -2.8 27 59 -9.7 14.5
06:55 1029 30.39 858 25.34 -2.8 27 59 -9.8 14.4
07:00 1028 30.36 858 25.34 -2.8 27 60 -9.6 14.8
07:05 1028 30.36 858 25.34 -3.7 25.4 61 -10.1 13.9
07:10 1028 30.36 858 25.34 -3.2 26.3 58 -10.4 13.3
07:15 1028 30.36 858 25.34 -3.5 25.7 59 -10.4 13.3
07:20 1028 30.36 857 25.31 -3.5 25.6 59 -10.4 13.2
07:25 1028 30.36 857 25.31 -3.5 25.7 58 -10.5 13
07:30 1028 30.36 857 25.31 -3.4 25.9 58 -10.6 12.9
07:35 1028 30.36 857 25.31 -3.1 26.4 57 -10.5 13
07:40 1028 30.36 857 25.31 -2.3 27.9 53 -10.5 13
07:45 1028 30.36 858 25.34 -1.4 29.5 50 -10.4 13.2
07:50 1028 30.36 858 25.34 -1.5 29.4 52 -10.1 13.8
07:55 1028 30.36 858 25.34 -2 28.4 53 -10.4 13.3
08:00 1028 30.36 858 25.34 -1.7 28.9 51 -10.7 12.7
08:05 1028 30.36 858 25.34 -1 30.1 51 -10.1 13.9
08:10 1028 30.36 858 25.34 -2.1 28.3 55 -10 13.9
08:15 1028 30.36 857 25.31 -2.9 26.8 56 -10.6 13
08:20 1028 30.36 858 25.34 -2.5 27.5 53 -10.8 12.6
08:25 1028 30.36 858 25.34 -2 28.4 51 -10.7 12.7
08:30 1028 30.36 857 25.31 -1.8 28.8 51 -10.7 12.8
08:35 1028 30.36 857 25.31 -1.4 29.6 50 -10.6 12.9
08:40 1028 30.36 857 25.31 -1 30.3 48 -10.6 13
08:45 1028 30.36 857 25.31 -0.8 30.6 48 -10.4 13.2
08:50 1028 30.36 857 25.31 -0.8 30.6 48 -10.5 13.1
08:55 1028 30.36 857 25.31 -0.2 31.7 46 -10.6 13
09:00 1028 30.36 857 25.31 0.5 32.9 44 -10.4 13.3
09:05 1028 30.36 857 25.31 0.6 33.2 46 -9.7 14.5
09:10 1028 30.36 857 25.31 0.1 32.1 49 -9.4 15.1
09:15 1028 30.36 857 25.31 0 32 46 -10.2 13.6
09:20 1028 30.36 857 25.31 0.9 33.7 42 -10.5 13.1
09:25 1028 30.36 857 25.31 1.2 34.2 42 -10.4 13.3
09:30 1028 30.36 857 25.31 1.4 34.5 42 -10.3 13.5
09:35 1028 30.36 857 25.31 1.7 35.1 40 -10.5 13
09:40 1028 30.36 857 25.31 2.1 35.8 41 -9.8 14.3
09:45 1028 30.36 857 25.31 2.4 36.3 41 -9.6 14.8
09:50 1028 30.36 857 25.31 2.5 36.5 40 -9.7 14.6
09:55 1028 30.36 857 25.31 2.4 36.4 42 -9.2 15.5
10:00 1028 30.36 857 25.31 3.1 37.7 38 -9.9 14.2
10:05 1028 30.36 857 25.31 4 39.2 37 -9.3 15.3
10:10 1028 30.36 857 25.31 4.3 39.7 37 -9.1 15.7
10:15 1028 30.36 857 25.31 4.3 39.7 38 -8.9 16
10:20 1028 30.36 857 25.31 3.8 38.8 40 -8.7 16.3
10:25 1028 30.36 857 25.31 3.7 38.6 39 -8.9 16
10:30 1028 30.36 857 25.31 3.3 38 40 -9 15.7
10:35 1028 30.36 857 25.31 2.9 37.3 41 -8.9 15.9
10:40 1028 30.36 857 25.31 2.4 36.2 43 -9.1 15.6
10:45 1027 30.33 857 25.31 2.3 36.1 43 -9 15.8
10:50 1027 30.33 856 25.28 3.4 38.1 39 -9.4 15.1
10:55 1027 30.33 856 25.28 4 39.2 39 -8.7 16.4
11:00 1027 30.33 856 25.28 3.8 38.9 40 -8.7 16.4
11:05 1027 30.33 856 25.28 3.6 38.5 40 -8.9 16.1
11:10 1027 30.33 856 25.28 3.3 38 40 -9.1 15.7
11:15 1027 30.33 856 25.28 4.2 39.5 37 -9.2 15.4
11:20 1027 30.33 856 25.28 4.4 39.9 34 -10.2 13.6
11:25 1026 30.3 856 25.28 4.7 40.5 33 -10.1 13.9
11:30 1026 30.3 855 25.25 5.4 41.6 33 -9.8 14.3
11:35 1026 30.3 855 25.25 5.2 41.3 33 -10 14
11:40 1026 30.3 855 25.25 5.4 41.8 32 -10.1 13.9
11:45 1026 30.3 855 25.25 6.2 43.1 30 -10.2 13.6
11:50 1026 30.3 855 25.25 6.5 43.7 31 -9.6 14.7
11:55 1026 30.3 855 25.25 6 42.7 33 -9 15.8
12:00 1026 30.3 855 25.25 6.3 43.3 32 -9.2 15.5
12:05 1026 30.3 855 25.25 6.6 43.9 33 -8.5 16.7
12:10 1026 30.3 855 25.25 6.3 43.3 34 -8.6 16.5
12:15 1026 30.3 855 25.25 6.2 43.1 34 -8.5 16.8
12:20 1026 30.3 855 25.25 6.2 43.2 36 -7.7 18.2
12:25 1026 30.3 855 25.25 6.5 43.6 36 -7.6 18.3
12:30 1026 30.3 855 25.25 6.5 43.7 37 -7.1 19.3
12:35 1025 30.27 855 25.25 6.2 43.1 37 -7.3 18.8
12:40 1026 30.3 855 25.25 5.8 42.4 38 -7.5 18.5
12:45 1026 30.3 855 25.25 5.3 41.6 41 -6.8 19.8
12:50 1026 30.3 855 25.25 4.9 40.7 41 -7.5 18.6
12:55 1026 30.3 855 25.25 5.1 41.1 41 -7.2 19
13:00 1026 30.3 855 25.25 4.9 40.7 41 -7.4 18.8
13:05 1026 30.3 855 25.25 4.8 40.6 40 -7.8 18
13:10 1026 30.3 855 25.25 4.6 40.3 42 -7.1 19.2
13:15 1026 30.3 855 25.25 4.4 40 40 -8 17.6
13:20 1026 30.3 855 25.25 4.5 40.1 38 -8.8 16.2
13:25 1026 30.3 855 25.25 4.6 40.2 39 -8.2 17.3
13:30 1026 30.3 855 25.25 4.1 39.5 40 -8.1 17.3
13:35 1026 30.3 855 25.25 4 39.3 40 -8.5 16.6
13:40 1026 30.3 855 25.25 3.9 39.1 41 -8.2 17.2
13:45 1026 30.3 855 25.25 4.2 39.5 38 -9.1 15.7
13:50 1025 30.27 855 25.25 4 39.1 39 -8.7 16.4
13:55 1025 30.27 855 25.25 3.7 38.7 42 -8.1 17.4
14:00 1025 30.27 854 25.22 3.6 38.4 40 -8.8 16.1
14:05 1025 30.27 854 25.22 3.8 38.8 38 -9.4 15.2
14:10 1025 30.27 854 25.22 4.4 39.9 38 -8.8 16.2
14:15 1025 30.27 854 25.22 4.8 40.6 35 -9.2 15.4
14:20 1025 30.27 854 25.22 4.6 40.3 38 -8.7 16.4
14:25 1025 30.27 854 25.22 4.4 40 38 -8.6 16.5
14:30 1025 30.27 854 25.22 4.1 39.3 39 -8.6 16.5
14:35 1025 30.27 854 25.22 3.4 38.2 42 -8.2 17.2
14:40 1025 30.27 854 25.22 3.1 37.6 46 -7.4 18.7
14:45 1025 30.27 854 25.22 2.6 36.7 46 -7.8 18
14:50 1025 30.27 854 25.22 2.1 35.8 49 -7.4 18.6
14:55 1025 30.27 854 25.22 2.3 36.2 49 -7.4 18.7
15:00 1025 30.27 854 25.22 2.4 36.4 48 -7.6 18.3
15:05 1025 30.27 855 25.25 2.2 35.9 48 -7.8 17.9
15:10 1025 30.27 855 25.25 1.8 35.2 48 -8 17.6
15:15 1025 30.27 855 25.25 1.9 35.4 49 -7.6 18.3
15:20 1026 30.3 855 25.25 2.1 35.9 49 -7.5 18.4
15:25 1026 30.3 855 25.25 2 35.6 51 -7.2 19.1
15:30 1026 30.3 855 25.25 2.1 35.8 49 -7.4 18.6
15:35 1026 30.3 855 25.25 2.2 36 48 -7.7 18.2
15:40 1026 30.3 855 25.25 2.1 35.8 47 -8.2 17.3
15:45 1026 30.3 855 25.25 2.2 36 45 -8.6 16.5
15:50 1026 30.3 855 25.25 2.6 36.8 44 -8.5 16.6
15:55 1026 30.3 855 25.25 2.9 37.1 44 -8.3 17
16:00 1026 30.3 855 25.25 2.8 37 44 -8.4 16.9
16:05 1026 30.3 855 25.25 2.6 36.7 43 -8.7 16.3
16:10 1026 30.3 855 25.25 2.6 36.7 42 -9.2 15.5
16:15 1026 30.3 856 25.28 2.8 37.1 41 -9.2 15.4
16:20 1026 30.3 856 25.28 3 37.3 42 -8.8 16.2
16:25 1027 30.33 856 25.28 2.9 37.2 40 -9.6 14.8
16:30 1027 30.33 856 25.28 3 37.4 40 -9.3 15.3
16:35 1027 30.33 856 25.28 3 37.3 38 -10.2 13.7
16:40 1027 30.33 856 25.28 3 37.5 39 -9.7 14.5
16:45 1027 30.33 856 25.28 3 37.3 42 -8.7 16.3
16:50 1027 30.33 856 25.28 2.6 36.8 43 -8.7 16.4
16:55 1027 30.33 856 25.28 2.5 36.5 47 -7.8 18
17:00 1026 30.3 856 25.28 2.4 36.3 41 -9.5 14.9
17:05 1026 30.3 855 25.25 2.6 36.7 43 -8.8 16.1
17:10 1026 30.3 855 25.25 2.5 36.6 43 -8.8 16.2
17:15 1026 30.3 855 25.25 2.6 36.6 46 -8.1 17.5
17:20 1026 30.3 855 25.25 2.2 35.9 48 -7.6 18.3
17:25 1026 30.3 855 25.25 2.2 36 46 -8.4 16.9
17:30 1026 30.3 855 25.25 2.6 36.7 43 -8.8 16.1
17:35 1026 30.3 855 25.25 3.1 37.6 43 -8.2 17.3
17:40 1026 30.3 855 25.25 3.2 37.7 49 -6.5 20.3
17:45 1026 30.3 855 25.25 3 37.3 48 -7.1 19.2
17:50 1026 30.3 855 25.25 2.8 37.1 50 -6.6 20.2
17:55 1026 30.3 855 25.25 2.2 36 53 -6.4 20.5
18:00 1026 30.3 855 25.25 2.1 35.8 48 -7.7 18.2
18:05 1026 30.3 855 25.25 2.2 35.9 49 -7.3 18.8
18:10 1026 30.3 855 25.25 2 35.6 53 -6.7 20
18:15 1026 30.3 855 25.25 2.3 36.2 47 -7.9 17.8
18:20 1026 30.3 855 25.25 2.6 36.7 45 -8.3 17.1
18:25 1026 30.3 855 25.25 2.5 36.5 47 -7.8 18
18:30 1026 30.3 855 25.25 2.4 36.4 49 -7.1 19.1
18:35 1026 30.3 855 25.25 2.3 36.1 47 -7.9 17.7
18:40 1026 30.3 855 25.25 2.3 36.2 46 -8.1 17.4
18:45 1026 30.3 855 25.25 2.4 36.3 50 -7 19.5
18:50 1025 30.27 855 25.25 2.2 35.9 52 -6.6 20.1
18:55 1026 30.3 855 25.25 1.9 35.5 53 -6.6 20.1
19:00 1026 30.3 855 25.25 1.6 34.9 56 -6.2 20.9
19:05 1026 30.3 855 25.25 1.2 34.2 56 -6.6 20.1
19:10 1026 30.3 855 25.25 1.3 34.3 56 -6.5 20.3
19:15 1026 30.3 855 25.25 1.4 34.5 54 -7 19.4
19:20 1025 30.27 855 25.25 1.6 34.8 47 -8.4 16.8
19:25 1026 30.3 855 25.25 1.8 35.2 52 -7.1 19.2
19:30 1026 30.3 855 25.25 1.6 34.9 54 -6.7 20
19:35 1025 30.27 855 25.25 1.7 35.1 51 -7.3 18.9
19:40 1025 30.27 855 25.25 1.8 35.3 50 -7.4 18.6
19:45 1025 30.27 854 25.22 1.8 35.2 52 -7 19.5
19:50 1025 30.27 854 25.22 1.5 34.7 54 -6.7 19.9
19:55 1025 30.27 854 25.22 1.2 34.1 59 -6.1 21.1
20:00 1025 30.27 854 25.22 0.7 33.3 60 -6.3 20.7
20:05 1025 30.27 854 25.22 0.5 32.9 54 -7.8 17.9
20:10 1025 30.27 854 25.22 0.8 33.4 56 -7 19.4
20:15 1025 30.27 854 25.22 0.8 33.4 55 -7.3 18.9
20:20 1025 30.27 854 25.22 0.7 33.2 56 -7.2 19.1
20:25 1025 30.27 854 25.22 0.8 33.4 51 -8.2 17.2
20:30 1025 30.27 854 25.22 1.6 34.9 46 -8.7 16.3
20:35 1025 30.27 854 25.22 2 35.7 47 -8.2 17.3
20:40 1025 30.27 854 25.22 1.9 35.4 49 -7.7 18.1
20:45 1025 30.27 855 25.25 1.4 34.5 47 -8.8 16.2
20:50 1025 30.27 854 25.22 1.9 35.4 47 -8.2 17.3
20:55 1025 30.27 854 25.22 1.8 35.2 50 -7.5 18.4
21:00 1025 30.27 854 25.22 1.6 34.9 50 -7.8 17.9
21:05 1025 30.27 854 25.22 1.7 35 49 -7.9 17.8
21:10 1025 30.27 854 25.22 1.5 34.7 49 -8.1 17.4
21:15 1025 30.27 854 25.22 1.7 35.1 50 -7.6 18.4
21:20 1025 30.27 855 25.25 1.5 34.6 49 -8 17.6
21:25 1025 30.27 855 25.25 1.4 34.6 49 -8.2 17.3
21:30 1025 30.27 855 25.25 1.8 35.2 46 -8.5 16.6
21:35 1025 30.27 855 25.25 2 35.6 49 -7.6 18.4
21:40 1025 30.27 855 25.25 1.7 35.1 50 -7.6 18.3
21:45 1025 30.27 855 25.25 1.6 34.9 52 -7.2 19
21:50 1025 30.27 855 25.25 1.7 35 48 -8.2 17.3
21:55 1025 30.27 855 25.25 1.7 35 55 -6.4 20.4
22:00 1025 30.27 855 25.25 1.5 34.7 46 -9 15.8
22:05 1025 30.27 855 25.25 2.2 35.9 43 -9 15.8
22:10 1025 30.27 854 25.22 2.5 36.5 44 -8.6 16.5
22:15 1025 30.27 854 25.22 2.6 36.7 42 -9.1 15.6
22:20 1025 30.27 855 25.25 2.9 37.2 42 -8.8 16.2
22:25 1025 30.27 855 25.25 3 37.4 43 -8.3 17.1
22:30 1025 30.27 855 25.25 2.9 37.2 45 -7.9 17.7
22:35 1025 30.27 855 25.25 2.8 37 43 -8.6 16.6
22:40 1025 30.27 855 25.25 2.9 37.2 44 -8 17.5
22:45 1025 30.27 855 25.25 3 37.4 39 -9.5 14.9
22:50 1025 30.27 855 25.25 3.4 38.1 42 -8.5 16.8
22:55 1025 30.27 855 25.25 3.1 37.5 44 -7.9 17.7
23:00 1025 30.27 855 25.25 2.7 36.8 46 -8 17.7
23:05 1025 30.27 855 25.25 2.6 36.6 46 -8 17.7
23:10 1025 30.27 855 25.25 2.5 36.6 44 -8.5 16.6
23:15 1025 30.27 855 25.25 2.7 36.9 41 -9.1 15.5
23:20 1025 30.27 855 25.25 3 37.3 41 -9.1 15.6
23:25 1026 30.3 855 25.25 3.1 37.6 40 -9.2 15.4
23:30 1026 30.3 855 25.25 3.2 37.7 43 -8.1 17.4
23:35 1026 30.3 855 25.25 2.7 36.9 45 -8 17.5
23:40 1026 30.3 855 25.25 2.5 36.4 45 -8.4 16.9
23:45 1026 30.3 855 25.25 2.4 36.4 44 -8.7 16.4
23:50 1026 30.3 855 25.25 2.5 36.4 44 -8.6 16.4
23:55 1026 30.3 855 25.25 2.5 36.5 41 -9.4 15.1
24:00 1026 30.3 855 25.25 2.8 37 42 -8.8 16.2